Time;durP1;ratioP1;P1;durP2;ratioP2;P2;SDS_P1;SDS_P2;PMS_P1;PMS_P2;Temp;Humidity;BMP_temperature;BMP_pressure;BME280_temperature;BME280_humidity;BME280_pressure;Samples;Min_cycle;Max_cycle;Signal;HPM_P1;HPM_P2
2022/03/07 00:01:25;;;;;;;1.10;1.00;;;1.10;80.50;;;;;;4991678;28;20382;-71
2022/03/07 00:03:52;;;;;;;0.40;0.28;;;1.20;82.60;;;;;;4990600;28;20394;-71
2022/03/07 00:06:18;;;;;;;0.80;0.80;;;1.10;81.40;;;;;;4974542;28;20421;-71
2022/03/07 00:08:44;;;;;;;0.40;0.20;;;1.00;82.20;;;;;;4974032;28;20918;-71
2022/03/07 00:11:09;;;;;;;0.40;0.40;;;1.00;83.60;;;;;;4990539;28;20413;-71
2022/03/07 00:13:35;;;;;;;1.10;1.10;;;1.00;82.80;;;;;;4991453;28;20422;-70
2022/03/07 00:16:02;;;;;;;0.60;0.60;;;1.00;85.10;;;;;;4990707;28;20414;-69
2022/03/07 00:18:28;;;;;;;0.40;0.40;;;0.90;83.00;;;;;;4991607;28;20390;-70
2022/03/07 00:20:55;;;;;;;0.40;0.20;;;1.00;83.90;;;;;;4991744;28;20406;-70
2022/03/07 00:23:21;;;;;;;0.60;0.60;;;0.80;83.80;;;;;;4991177;28;20395;-70
2022/03/07 00:25:47;;;;;;;0.40;0.30;;;0.90;85.00;;;;;;4991353;28;20453;-70
2022/03/07 00:28:15;;;;;;;0.50;0.50;;;0.80;84.40;;;;;;4973148;28;20509;-70
2022/03/07 00:30:41;;;;;;;0.40;0.30;;;0.70;85.90;;;;;;4991132;28;20386;-70
2022/03/07 00:33:07;;;;;;;0.40;0.27;;;0.60;86.50;;;;;;4990495;28;20406;-70
2022/03/07 00:35:32;;;;;;;0.40;0.30;;;0.70;87.00;;;;;;4973801;28;20406;-71
2022/03/07 00:37:58;;;;;;;0.40;0.20;;;0.70;88.30;;;;;;4991286;28;20429;-70
2022/03/07 00:40:24;;;;;;;0.40;0.20;;;0.60;86.80;;;;;;4990117;28;20397;-70
2022/03/07 00:42:49;;;;;;;0.63;0.63;;;0.60;88.30;;;;;;4991328;28;20378;-70
2022/03/07 00:45:15;;;;;;;0.40;0.30;;;0.60;87.30;;;;;;4972875;28;20386;-71
2022/03/07 00:47:41;;;;;;;0.40;0.20;;;0.60;88.20;;;;;;4991551;28;20418;-70
2022/03/07 00:50:08;;;;;;;0.40;0.20;;;0.60;88.30;;;;;;4973702;28;20508;-70
2022/03/07 00:52:34;;;;;;;2.10;1.38;;;0.50;87.70;;;;;;4990059;28;21022;-70
2022/03/07 00:55:00;;;;;;;0.40;0.30;;;0.60;88.30;;;;;;4991121;28;20390;-70
2022/03/07 00:57:26;;;;;;;0.40;0.20;;;0.50;88.60;;;;;;4990643;28;20865;-70
2022/03/07 00:59:52;;;;;;;0.40;0.20;;;0.60;87.80;;;;;;4990293;28;20394;-70
2022/03/07 01:02:18;;;;;;;0.40;0.30;;;0.40;89.60;;;;;;4991175;28;20486;-70
2022/03/07 01:04:43;;;;;;;0.40;0.40;;;0.40;88.50;;;;;;4990253;28;20386;-70
2022/03/07 01:07:09;;;;;;;1.00;0.80;;;0.60;88.30;;;;;;4990816;28;20387;-70
2022/03/07 01:09:35;;;;;;;0.75;0.75;;;0.40;88.40;;;;;;4990060;28;20402;-70
2022/03/07 01:12:01;;;;;;;0.40;0.40;;;0.50;88.70;;;;;;4991109;28;20469;-70
2022/03/07 01:14:26;;;;;;;0.40;0.20;;;0.30;88.40;;;;;;4990744;28;20391;-70
2022/03/07 01:16:52;;;;;;;0.40;0.32;;;0.30;89.60;;;;;;4990161;28;20394;-71
2022/03/07 01:19:18;;;;;;;0.40;0.30;;;0.40;90.20;;;;;;5005959;28;20473;-71
2022/03/07 01:21:44;;;;;;;0.70;0.57;;;0.30;89.10;;;;;;4989790;28;20410;-70
2022/03/07 01:24:10;;;;;;;0.40;0.20;;;0.30;89.20;;;;;;4992117;28;20387;-71
2022/03/07 01:26:37;;;;;;;0.40;0.20;;;0.40;89.40;;;;;;4994117;28;20375;-70
2022/03/07 01:29:03;;;;;;;0.40;0.20;;;0.40;88.60;;;;;;4993960;28;20894;-70
2022/03/07 01:31:29;;;;;;;0.40;0.20;;;0.30;89.00;;;;;;4994473;28;20473;-70
2022/03/07 01:33:55;;;;;;;0.40;0.20;;;0.40;88.00;;;;;;4993580;28;20514;-70
2022/03/07 01:36:20;;;;;;;0.40;0.20;;;0.40;88.40;;;;;;4994179;28;20875;-70
2022/03/07 01:38:46;;;;;;;0.40;0.40;;;0.40;88.70;;;;;;4993862;28;20541;-70
2022/03/07 01:41:12;;;;;;;0.40;0.30;;;0.40;87.50;;;;;;4993720;28;20393;-71
2022/03/07 01:43:38;;;;;;;0.40;0.20;;;0.50;87.00;;;;;;4994212;28;20733;-70
2022/03/07 01:46:04;;;;;;;0.40;0.40;;;0.50;85.50;;;;;;4975837;28;20498;-70
2022/03/07 01:48:29;;;;;;;0.40;0.20;;;0.60;84.50;;;;;;4994121;28;20422;-70
2022/03/07 01:50:56;;;;;;;0.50;0.50;;;0.60;85.00;;;;;;4993667;28;20477;-70
2022/03/07 01:53:22;;;;;;;0.40;0.20;;;0.70;83.90;;;;;;4993919;28;20414;-70
2022/03/07 01:55:48;;;;;;;0.50;0.40;;;0.80;83.20;;;;;;4976487;28;20390;-69
2022/03/07 01:58:13;;;;;;;0.40;0.30;;;0.80;82.80;;;;;;4992763;28;20481;-69
2022/03/07 02:00:39;;;;;;;0.40;0.30;;;0.70;82.20;;;;;;4993997;28;20798;-70
2022/03/07 02:03:06;;;;;;;0.40;0.30;;;0.70;82.30;;;;;;4993174;28;20399;-70
2022/03/07 02:05:32;;;;;;;0.40;0.40;;;0.80;82.60;;;;;;4993599;28;20436;-69
2022/03/07 02:07:58;;;;;;;0.50;0.50;;;0.70;82.60;;;;;;4993717;28;20395;-69
2022/03/07 02:10:28;;;;;;;1.20;0.70;;;0.80;82.50;;;;;;4992821;28;20382;-70
2022/03/07 02:12:54;;;;;;;0.40;0.30;;;0.80;82.00;;;;;;4993095;28;20445;-70
2022/03/07 02:15:20;;;;;;;0.40;0.20;;;0.70;83.00;;;;;;4992658;28;20386;-69
2022/03/07 02:17:46;;;;;;;0.40;0.30;;;0.70;82.10;;;;;;4993663;28;20386;-69
2022/03/07 02:20:12;;;;;;;0.40;0.20;;;0.70;81.80;;;;;;4993356;28;20413;-69
2022/03/07 02:22:38;;;;;;;0.40;0.20;;;0.70;81.70;;;;;;4975133;28;20394;-69
2022/03/07 02:25:05;;;;;;;0.40;0.30;;;0.70;82.20;;;;;;4993266;28;20448;-71
2022/03/07 02:27:32;;;;;;;0.40;0.20;;;0.60;82.20;;;;;;4992294;28;20925;-70
2022/03/07 02:29:59;;;;;;;0.40;0.30;;;0.60;82.10;;;;;;4993382;28;20383;-69
2022/03/07 02:32:25;;;;;;;0.40;0.20;;;0.60;82.60;;;;;;4992924;28;20441;-69
2022/03/07 02:34:51;;;;;;;0.40;0.20;;;0.60;82.80;;;;;;4992904;28;20514;-69
2022/03/07 02:37:17;;;;;;;0.40;0.20;;;0.60;82.80;;;;;;4993222;28;20437;-69
2022/03/07 02:39:43;;;;;;;0.40;0.40;;;0.60;82.90;;;;;;4992435;28;20402;-69
2022/03/07 02:42:09;;;;;;;0.40;0.20;;;0.60;82.60;;;;;;4993109;28;20394;-69
2022/03/07 02:44:35;;;;;;;0.40;0.20;;;0.70;82.40;;;;;;4992945;28;20429;-69
2022/03/07 02:47:00;;;;;;;0.50;0.50;;;0.60;82.80;;;;;;4992641;28;20469;-69
2022/03/07 02:49:26;;;;;;;0.40;0.20;;;0.60;82.70;;;;;;4992593;28;20923;-69
2022/03/07 02:51:52;;;;;;;0.40;0.20;;;0.70;82.90;;;;;;4992019;28;20390;-69
2022/03/07 02:54:17;;;;;;;0.40;0.20;;;0.70;83.30;;;;;;4992831;28;20844;-69
2022/03/07 02:56:44;;;;;;;0.40;0.30;;;0.60;82.60;;;;;;4975477;28;20927;-69
2022/03/07 02:59:11;;;;;;;0.40;0.20;;;0.60;82.90;;;;;;4974778;28;20899;-69
2022/03/07 03:01:36;;;;;;;0.40;0.30;;;0.50;83.40;;;;;;4992747;28;20390;-70
2022/03/07 03:04:02;;;;;;;1.80;1.70;;;0.50;83.50;;;;;;4991805;28;20769;-70
2022/03/07 03:06:28;;;;;;;0.40;0.20;;;0.50;83.30;;;;;;4992862;28;20425;-70
2022/03/07 03:08:54;;;;;;;0.90;0.90;;;0.50;83.40;;;;;;4991873;28;20430;-70
2022/03/07 03:11:20;;;;;;;0.40;0.30;;;0.50;84.40;;;;;;4992162;28;20427;-70
2022/03/07 03:13:46;;;;;;;0.80;0.80;;;0.40;84.30;;;;;;4975350;28;20485;-69
2022/03/07 03:16:12;;;;;;;0.40;0.20;;;0.50;84.90;;;;;;4991762;28;20477;-70
2022/03/07 03:18:38;;;;;;;0.40;0.30;;;0.40;84.10;;;;;;4992217;28;20474;-70
2022/03/07 03:21:04;;;;;;;0.40;0.20;;;0.50;84.50;;;;;;4992099;28;20496;-70
2022/03/07 03:23:29;;;;;;;0.40;0.40;;;0.50;83.50;;;;;;4991632;28;20402;-70
2022/03/07 03:25:55;;;;;;;0.40;0.30;;;0.40;83.60;;;;;;4992174;28;20381;-70
2022/03/07 03:28:23;;;;;;;0.40;0.30;;;0.40;84.60;;;;;;4991258;28;20386;-70
2022/03/07 03:30:50;;;;;;;0.50;0.50;;;0.40;83.70;;;;;;4992200;28;20387;-69
2022/03/07 03:33:15;;;;;;;0.40;0.20;;;0.50;84.20;;;;;;4991253;28;20413;-69
2022/03/07 03:35:41;;;;;;;0.60;0.60;;;0.50;84.00;;;;;;4992141;28;20399;-70
2022/03/07 03:38:10;;;;;;;0.40;0.20;;;0.40;84.30;;;;;;4991898;28;20394;-69
2022/03/07 03:40:37;;;;;;;0.40;0.20;;;0.50;83.60;;;;;;4991419;28;20390;-70
2022/03/07 03:43:02;;;;;;;0.40;0.30;;;0.40;83.40;;;;;;4991682;28;20863;-70
2022/03/07 03:45:28;;;;;;;0.40;0.30;;;0.40;83.50;;;;;;4990938;28;20386;-70
2022/03/07 03:47:54;;;;;;;0.40;0.30;;;0.40;83.70;;;;;;4991265;28;20477;-69
2022/03/07 03:50:19;;;;;;;0.40;0.20;;;0.40;84.20;;;;;;4991666;28;20494;-69
2022/03/07 03:52:45;;;;;;;0.50;0.50;;;0.40;84.10;;;;;;4991415;28;20498;-69
2022/03/07 03:55:12;;;;;;;0.80;0.80;;;0.30;84.40;;;;;;4974366;28;20395;-70
2022/03/07 03:57:39;;;;;;;0.70;0.70;;;0.30;84.40;;;;;;4991014;28;20423;-70
2022/03/07 04:00:08;;;;;;;0.40;0.40;;;0.30;84.40;;;;;;4991567;28;20728;-70
2022/03/07 04:02:34;;;;;;;0.40;0.20;;;0.20;84.40;;;;;;4990902;28;20493;-70
2022/03/07 04:05:00;;;;;;;0.40;0.20;;;0.30;85.10;;;;;;4991415;28;20903;-69
2022/03/07 04:07:25;;;;;;;0.70;0.60;;;0.40;84.90;;;;;;4991408;28;20426;-69
2022/03/07 04:09:51;;;;;;;0.40;0.30;;;0.40;84.50;;;;;;4991069;28;20378;-69
2022/03/07 04:12:17;;;;;;;0.40;0.40;;;0.30;83.60;;;;;;4973570;28;20473;-69
2022/03/07 04:14:42;;;;;;;0.40;0.30;;;0.30;83.70;;;;;;4990846;28;20394;-70
2022/03/07 04:17:08;;;;;;;0.40;0.20;;;0.30;84.10;;;;;;4991148;28;20521;-70
2022/03/07 04:19:34;;;;;;;0.40;0.30;;;0.20;84.60;;;;;;4991209;28;20479;-70
2022/03/07 04:21:59;;;;;;;0.40;0.40;;;0.20;85.00;;;;;;4990656;28;20391;-70
2022/03/07 04:24:25;;;;;;;0.60;0.60;;;0.20;85.10;;;;;;4991486;28;20379;-69
2022/03/07 04:26:50;;;;;;;0.40;0.20;;;0.10;84.70;;;;;;4990593;28;20473;-69
2022/03/07 04:29:16;;;;;;;0.40;0.20;;;0.10;85.40;;;;;;4991658;28;20910;-69
2022/03/07 04:31:43;;;;;;;0.40;0.20;;;0.10;85.00;;;;;;4991129;28;20709;-69
2022/03/07 04:34:10;;;;;;;0.40;0.20;;;0.10;84.90;;;;;;4991038;28;20481;-69
2022/03/07 04:36:38;;;;;;;0.50;0.50;;;0.00;85.00;;;;;;4991485;28;20394;-70
2022/03/07 04:39:05;;;;;;;0.40;0.28;;;0.10;85.30;;;;;;4990581;28;20525;-70
2022/03/07 04:41:31;;;;;;;0.40;0.20;;;0.00;85.60;;;;;;4991037;28;20379;-70
2022/03/07 04:43:57;;;;;;;0.40;0.20;;;0.10;85.30;;;;;;4990511;28;20823;-69
2022/03/07 04:46:23;;;;;;;0.40;0.20;;;0.10;84.10;;;;;;4991431;28;20470;-70
2022/03/07 04:48:48;;;;;;;0.40;0.20;;;0.00;84.40;;;;;;4991187;28;20383;-70
2022/03/07 04:51:14;;;;;;;0.40;0.20;;;-0.10;85.10;;;;;;4990169;28;20418;-69
2022/03/07 04:53:40;;;;;;;0.40;0.20;;;0.00;84.90;;;;;;4991087;28;20779;-70
2022/03/07 04:56:07;;;;;;;0.40;0.20;;;-0.10;84.70;;;;;;4990141;28;20383;-69
2022/03/07 04:58:33;;;;;;;0.40;0.20;;;-0.10;85.10;;;;;;4991122;28;20379;-70
2022/03/07 05:00:59;;;;;;;0.50;0.50;;;-0.10;85.50;;;;;;4995116;28;20732;-69
2022/03/07 05:03:25;;;;;;;0.40;0.20;;;-0.20;85.20;;;;;;4976723;28;20394;-69
2022/03/07 05:05:50;;;;;;;0.40;0.20;;;-0.10;85.90;;;;;;4977195;28;20386;-70
2022/03/07 05:08:17;;;;;;;0.40;0.30;;;-0.20;85.40;;;;;;4993735;28;20387;-70
2022/03/07 05:10:43;;;;;;;0.40;0.30;;;-0.20;85.30;;;;;;4976895;28;20399;-70
2022/03/07 05:13:09;;;;;;;0.40;0.30;;;-0.20;85.50;;;;;;4994985;28;20418;-71
2022/03/07 05:15:34;;;;;;;0.40;0.20;;;-0.20;86.00;;;;;;4994567;28;20863;-68
2022/03/07 05:18:00;;;;;;;0.40;0.20;;;-0.20;85.40;;;;;;4977032;28;20469;-70
2022/03/07 05:20:26;;;;;;;0.40;0.20;;;-0.20;85.40;;;;;;4994032;28;20457;-69
2022/03/07 05:22:52;;;;;;;0.40;0.30;;;-0.20;85.60;;;;;;4976995;28;20405;-69
2022/03/07 05:25:20;;;;;;;1.40;1.30;;;-0.10;85.30;;;;;;4993967;28;20489;-69
2022/03/07 05:27:46;;;;;;;0.40;0.20;;;-0.10;86.00;;;;;;4994390;28;20403;-70
2022/03/07 05:30:15;;;;;;;0.40;0.20;;;-0.10;85.20;;;;;;4977068;28;20403;-70
2022/03/07 05:32:53;;;;;;;0.40;0.20;;;-0.20;85.20;;;;;;4993604;28;20476;-70
2022/03/07 05:35:21;;;;;;;0.40;0.30;;;-0.30;85.80;;;;;;4994456;28;20460;-69
2022/03/07 05:37:47;;;;;;;0.40;0.20;;;-0.40;85.70;;;;;;4975805;28;20490;-70
2022/03/07 05:40:14;;;;;;;0.40;0.40;;;-0.30;86.40;;;;;;4994407;28;20406;-71
2022/03/07 05:42:40;;;;;;;1.90;0.60;;;-0.40;85.60;;;;;;4993436;28;20390;-71
2022/03/07 05:45:08;;;;;;;0.50;0.50;;;-0.40;85.50;;;;;;4994171;28;20387;-71
2022/03/07 05:47:34;;;;;;;0.40;0.30;;;-0.30;86.00;;;;;;4976046;28;20907;-71
2022/03/07 05:49:59;;;;;;;0.40;0.20;;;-0.40;86.00;;;;;;4976907;28;20422;-69
2022/03/07 05:52:26;;;;;;;0.40;0.20;;;-0.30;86.10;;;;;;4994123;28;20418;-69
2022/03/07 05:54:51;;;;;;;0.40;0.23;;;-0.30;85.80;;;;;;4993237;28;20397;-71
2022/03/07 05:57:17;;;;;;;0.40;0.30;;;-0.20;85.20;;;;;;4994105;28;20391;-69
2022/03/07 05:59:43;;;;;;;1.00;1.00;;;-0.20;85.20;;;;;;4975517;28;20406;-69
2022/03/07 06:02:09;;;;;;;0.40;0.20;;;-0.10;84.90;;;;;;4993731;28;20383;-70
2022/03/07 06:04:35;;;;;;;0.80;0.60;;;-0.20;85.00;;;;;;4993172;28;20395;-70
2022/03/07 06:07:00;;;;;;;0.40;0.20;;;-0.10;84.50;;;;;;4974894;28;20544;-69
2022/03/07 06:09:26;;;;;;;0.40;0.20;;;-0.10;84.60;;;;;;4975695;28;20492;-69
2022/03/07 06:11:52;;;;;;;0.40;0.20;;;-0.10;84.30;;;;;;4992692;28;20410;-69
2022/03/07 06:14:17;;;;;;;0.40;0.30;;;-0.10;83.70;;;;;;4993494;28;20739;-69
2022/03/07 06:16:43;;;;;;;0.40;0.20;;;-0.20;84.00;;;;;;4993682;28;20401;-69
2022/03/07 06:19:09;;;;;;;0.40;0.20;;;-0.20;84.20;;;;;;4975440;28;20398;-70
2022/03/07 06:21:35;;;;;;;0.40;0.20;;;-0.20;84.30;;;;;;4993384;28;20510;-70
2022/03/07 06:24:00;;;;;;;0.40;0.20;;;-0.20;84.30;;;;;;4993007;28;20398;-71
2022/03/07 06:26:26;;;;;;;0.40;0.30;;;-0.10;84.60;;;;;;4993819;28;20786;-70
2022/03/07 06:28:52;;;;;;;0.50;0.50;;;0.20;83.50;;;;;;4993870;28;20473;-70
2022/03/07 06:31:19;;;;;;;0.40;0.20;;;0.00;83.30;;;;;;4992703;28;20382;-71
2022/03/07 06:33:44;;;;;;;0.40;0.40;;;-0.10;83.80;;;;;;4993016;28;20418;-72
2022/03/07 06:36:10;;;;;;;0.70;0.60;;;0.00;83.50;;;;;;4992557;28;20485;-72
2022/03/07 06:38:39;;;;;;;0.40;0.20;;;0.00;83.40;;;;;;4993472;28;20387;-72
2022/03/07 06:41:05;;;;;;;0.40;0.20;;;0.50;83.40;;;;;;4993475;28;20422;-72
2022/03/07 06:43:31;;;;;;;0.40;0.40;;;0.10;82.80;;;;;;4988925;28;20417;-71
2022/03/07 06:45:57;;;;;;;0.40;0.30;;;0.00;83.00;;;;;;4988899;28;20395;-71
2022/03/07 06:48:23;;;;;;;0.70;0.60;;;0.00;82.80;;;;;;4991020;28;20386;-72
2022/03/07 06:50:48;;;;;;;0.40;0.20;;;0.20;82.20;;;;;;4990762;28;20414;-72
2022/03/07 06:53:14;;;;;;;0.40;0.20;;;0.30;81.30;;;;;;4991504;28;20414;-72
2022/03/07 06:55:40;;;;;;;0.40;0.32;;;0.40;80.40;;;;;;4991910;28;20398;-72
2022/03/07 06:58:06;;;;;;;1.70;1.60;;;0.40;80.40;;;;;;4985228;28;20402;-72
2022/03/07 07:00:32;;;;;;;0.40;0.20;;;0.50;79.90;;;;;;4985757;28;20387;-72
2022/03/07 07:02:58;;;;;;;0.40;0.20;;;0.60;78.80;;;;;;4990916;28;20473;-72
2022/03/07 07:05:24;;;;;;;0.40;0.20;;;0.70;79.30;;;;;;4988684;28;20472;-71
2022/03/07 07:07:50;;;;;;;0.40;0.40;;;0.70;79.30;;;;;;4992154;28;20859;-71
2022/03/07 07:10:18;;;;;;;0.40;0.20;;;0.80;78.90;;;;;;4992193;28;20463;-72
2022/03/07 07:12:46;;;;;;;0.40;0.23;;;0.80;78.40;;;;;;4991116;28;20887;-71
2022/03/07 07:15:12;;;;;;;0.40;0.20;;;0.90;78.00;;;;;;4991020;28;20930;-72
2022/03/07 07:17:38;;;;;;;0.40;0.20;;;1.00;77.00;;;;;;4985425;28;20529;-71
2022/03/07 07:20:06;;;;;;;0.40;0.20;;;0.90;77.10;;;;;;4973028;28;20463;-72
2022/03/07 07:22:32;;;;;;;0.40;0.30;;;1.10;76.50;;;;;;4971950;28;20495;-71
2022/03/07 07:24:57;;;;;;;0.40;0.30;;;1.20;77.40;;;;;;4972449;28;20563;-71
2022/03/07 07:27:23;;;;;;;0.40;0.20;;;1.20;75.90;;;;;;4991208;28;20390;-71
2022/03/07 07:29:49;;;;;;;0.40;0.20;;;1.60;75.70;;;;;;4990819;28;20385;-71
2022/03/07 07:32:15;;;;;;;0.50;0.50;;;1.20;75.80;;;;;;4991632;28;20427;-72
2022/03/07 07:34:41;;;;;;;0.40;0.20;;;1.30;74.70;;;;;;4991500;28;20763;-72
2022/03/07 07:37:07;;;;;;;0.40;0.20;;;1.30;74.70;;;;;;4991397;28;20390;-72
2022/03/07 07:39:33;;;;;;;0.43;0.32;;;1.60;75.00;;;;;;4992050;28;20385;-72
2022/03/07 07:41:58;;;;;;;0.40;0.20;;;1.30;74.70;;;;;;4957531;28;20422;-71
2022/03/07 07:44:24;;;;;;;0.40;0.40;;;1.40;74.30;;;;;;4991869;28;20781;-72
2022/03/07 07:46:50;;;;;;;1.20;1.10;;;1.50;74.00;;;;;;4973799;28;20494;-71
2022/03/07 07:49:16;;;;;;;0.40;0.20;;;1.60;74.20;;;;;;4990948;28;20812;-72
2022/03/07 07:51:41;;;;;;;0.40;0.40;;;1.60;74.00;;;;;;4991814;28;20569;-72
2022/03/07 07:54:07;;;;;;;0.40;0.20;;;1.60;73.80;;;;;;4988909;28;20429;-72
2022/03/07 07:56:33;;;;;;;0.70;0.70;;;1.70;75.00;;;;;;4991641;28;20391;-71
2022/03/07 07:58:59;;;;;;;2.30;1.30;;;1.80;73.90;;;;;;4990455;28;20390;-71
2022/03/07 08:01:25;;;;;;;0.80;0.80;;;1.90;74.00;;;;;;4991329;28;20432;-72
2022/03/07 08:03:50;;;;;;;0.60;0.50;;;1.80;73.90;;;;;;4991488;28;20383;-72
2022/03/07 08:06:16;;;;;;;0.40;0.20;;;1.80;74.10;;;;;;4989912;28;20413;-71
2022/03/07 08:08:42;;;;;;;1.20;0.70;;;2.00;73.90;;;;;;4973985;28;20401;-71
2022/03/07 08:11:08;;;;;;;0.40;0.20;;;2.50;73.70;;;;;;4989974;28;20856;-72
2022/03/07 08:13:33;;;;;;;0.40;0.20;;;2.00;73.40;;;;;;4973804;28;20422;-72
2022/03/07 08:15:59;;;;;;;1.30;0.50;;;2.10;73.30;;;;;;4991081;28;20414;-72
2022/03/07 08:18:25;;;;;;;0.40;0.20;;;2.10;72.90;;;;;;4989995;28;20473;-72
2022/03/07 08:20:51;;;;;;;0.40;0.30;;;2.10;73.00;;;;;;4989005;28;20883;-72
2022/03/07 08:23:17;;;;;;;0.40;0.30;;;2.20;73.00;;;;;;4990333;28;20394;-72
2022/03/07 08:25:43;;;;;;;0.40;0.30;;;2.30;73.30;;;;;;4991085;28;20811;-72
2022/03/07 08:28:08;;;;;;;1.30;0.93;;;2.40;72.30;;;;;;4988181;28;20763;-72
2022/03/07 08:30:34;;;;;;;0.50;0.50;;;2.50;73.90;;;;;;4990077;28;20383;-72
2022/03/07 08:33:00;;;;;;;0.40;0.20;;;2.80;71.80;;;;;;4973323;28;20709;-73
2022/03/07 08:35:27;;;;;;;0.55;0.55;;;2.70;70.90;;;;;;4989814;28;20472;-72
2022/03/07 08:37:53;;;;;;;0.50;0.50;;;2.60;71.30;;;;;;4991121;28;20383;-72
2022/03/07 08:40:21;;;;;;;1.40;0.40;;;2.70;71.50;;;;;;4990684;28;20412;-72
2022/03/07 08:42:48;;;;;;;0.40;0.20;;;2.80;70.70;;;;;;4990054;28;20402;-72
2022/03/07 08:45:14;;;;;;;0.50;0.50;;;2.70;69.80;;;;;;4989222;28;20394;-72
2022/03/07 08:47:40;;;;;;;0.40;0.20;;;2.80;70.70;;;;;;4990192;28;20399;-72
2022/03/07 08:50:09;;;;;;;0.40;0.30;;;3.10;69.50;;;;;;4973335;28;20397;-72
2022/03/07 08:52:35;;;;;;;0.40;0.20;;;3.10;69.00;;;;;;4989743;28;20961;-72
2022/03/07 08:55:02;;;;;;;0.40;0.30;;;3.20;69.40;;;;;;4990517;28;20433;-73
2022/03/07 08:57:27;;;;;;;0.40;0.20;;;3.20;69.10;;;;;;4990412;28;20455;-72
2022/03/07 08:59:53;;;;;;;0.40;0.20;;;3.20;69.20;;;;;;4989645;28;20509;-72
2022/03/07 09:02:19;;;;;;;0.40;0.20;;;3.20;68.80;;;;;;4990811;28;20474;-72
2022/03/07 09:04:45;;;;;;;0.40;0.40;;;3.20;68.60;;;;;;4990095;28;20441;-71
2022/03/07 09:07:11;;;;;;;0.50;0.50;;;3.30;68.20;;;;;;4991010;28;20394;-72
2022/03/07 09:09:37;;;;;;;0.40;0.20;;;3.40;68.40;;;;;;4990580;28;20395;-72
2022/03/07 09:12:04;;;;;;;1.03;0.60;;;3.50;68.30;;;;;;4972285;28;20522;-72
2022/03/07 09:14:30;;;;;;;0.40;0.20;;;3.60;67.50;;;;;;4991253;28;20394;-72
2022/03/07 09:16:56;;;;;;;0.40;0.20;;;3.60;67.00;;;;;;4972724;28;20433;-72
2022/03/07 09:19:22;;;;;;;0.55;0.30;;;3.70;68.00;;;;;;4990756;28;20405;-72
2022/03/07 09:21:48;;;;;;;0.40;0.20;;;4.00;69.20;;;;;;4990962;28;20713;-72
2022/03/07 09:24:14;;;;;;;0.40;0.20;;;4.10;67.40;;;;;;4990467;28;20397;-72
2022/03/07 09:26:40;;;;;;;0.80;0.80;;;4.00;66.80;;;;;;4990416;28;20883;-73
2022/03/07 09:29:05;;;;;;;0.40;0.20;;;4.10;65.90;;;;;;4969265;28;20439;-72
2022/03/07 09:31:32;;;;;;;0.40;0.20;;;4.10;67.10;;;;;;4986197;28;20401;-70
2022/03/07 09:33:58;;;;;;;0.90;0.85;;;4.30;67.20;;;;;;4989006;28;20633;-70
2022/03/07 09:36:23;;;;;;;1.50;1.40;;;4.30;65.60;;;;;;4986415;28;20437;-70
2022/03/07 09:38:50;;;;;;;0.40;0.20;;;4.30;65.70;;;;;;4987554;28;20391;-71
2022/03/07 09:41:17;;;;;;;0.50;0.50;;;4.30;65.10;;;;;;4989031;28;20783;-70
2022/03/07 09:43:44;;;;;;;0.40;0.20;;;4.30;64.40;;;;;;4989507;28;20896;-70
2022/03/07 09:46:12;;;;;;;0.40;0.40;;;4.40;65.80;;;;;;4991738;28;20875;-70
2022/03/07 09:48:39;;;;;;;0.60;0.60;;;4.50;65.30;;;;;;4973679;28;20884;-71
2022/03/07 09:51:04;;;;;;;0.40;0.20;;;4.60;65.20;;;;;;4992504;28;20406;-70
2022/03/07 09:53:30;;;;;;;0.40;0.30;;;4.50;63.90;;;;;;4992266;28;20581;-71
2022/03/07 09:55:56;;;;;;;0.43;0.43;;;4.70;63.50;;;;;;4992926;28;20481;-71
2022/03/07 09:58:21;;;;;;;0.40;0.20;;;4.60;63.80;;;;;;4991932;28;20775;-71
2022/03/07 10:00:47;;;;;;;1.10;1.00;;;4.80;63.30;;;;;;4992443;28;20412;-71
2022/03/07 10:03:18;;;;;;;0.40;0.33;;;4.90;62.10;;;;;;4992716;28;20540;-70
2022/03/07 10:05:48;;;;;;;0.70;0.70;;;5.00;64.00;;;;;;4985903;28;20391;-70
2022/03/07 10:08:26;;;;;;;0.40;0.20;;;5.20;62.20;;;;;;4991823;28;20410;-70
2022/03/07 10:10:54;;;;;;;0.40;0.20;;;5.10;61.50;;;;;;4992289;28;20387;-71
2022/03/07 10:13:22;;;;;;;1.27;1.17;;;5.20;63.30;;;;;;4991933;28;20422;-71
2022/03/07 10:16:00;;;;;;;0.40;0.30;;;5.40;62.00;;;;;;4987501;28;20405;-72
2022/03/07 10:18:27;;;;;;;0.40;0.20;;;5.40;61.00;;;;;;4990198;28;20378;-70
2022/03/07 10:20:55;;;;;;;1.00;1.00;;;5.50;61.50;;;;;;4990440;28;20494;-71
2022/03/07 10:23:25;;;;;;;0.40;0.30;;;5.70;61.40;;;;;;4992568;28;20391;-70
2022/03/07 10:25:51;;;;;;;0.70;0.60;;;5.70;61.30;;;;;;4991700;28;20395;-70
2022/03/07 10:28:17;;;;;;;1.00;0.70;;;5.80;59.80;;;;;;4991945;28;20812;-72
2022/03/07 10:30:42;;;;;;;0.40;0.20;;;5.90;60.70;;;;;;4991194;28;20386;-70
2022/03/07 10:33:11;;;;;;;0.40;0.30;;;5.90;60.40;;;;;;4992357;28;20410;-70
2022/03/07 10:35:44;;;;;;;0.70;0.70;;;5.70;59.30;;;;;;4991413;28;20465;-71
2022/03/07 10:38:15;;;;;;;0.50;0.50;;;5.90;59.90;;;;;;4991874;28;20391;-71
2022/03/07 10:40:46;;;;;;;1.00;0.90;;;5.90;59.20;;;;;;4991405;28;20402;-71
2022/03/07 10:43:13;;;;;;;0.40;0.40;;;6.00;58.60;;;;;;4988264;28;20465;-72
2022/03/07 10:45:56;;;;;;;0.60;0.60;;;6.20;59.00;;;;;;4987940;28;20391;-70
2022/03/07 10:48:24;;;;;;;0.70;0.60;;;6.20;58.30;;;;;;4987926;28;20402;-71
2022/03/07 10:50:53;;;;;;;0.60;0.60;;;6.30;59.00;;;;;;4972235;28;20410;-71
2022/03/07 10:53:20;;;;;;;0.40;0.40;;;6.20;58.60;;;;;;4991988;28;20406;-71
2022/03/07 10:55:52;;;;;;;0.40;0.40;;;6.30;59.00;;;;;;4991266;28;20494;-71
2022/03/07 10:58:20;;;;;;;0.43;0.32;;;6.60;58.90;;;;;;4987268;28;20394;-71
2022/03/07 11:00:54;;;;;;;0.40;0.20;;;6.70;58.00;;;;;;4989861;28;20444;-72
2022/03/07 11:03:29;;;;;;;0.40;0.20;;;6.70;57.30;;;;;;4988994;28;20830;-71
2022/03/07 11:05:55;;;;;;;0.40;0.40;;;6.80;57.00;;;;;;4991278;28;20421;-72
2022/03/07 11:08:22;;;;;;;0.40;0.20;;;6.80;57.50;;;;;;4991454;28;20795;-71
2022/03/07 11:10:53;;;;;;;0.40;0.30;;;6.90;57.90;;;;;;4974857;28;20721;-72
2022/03/07 11:13:26;;;;;;;0.70;0.70;;;7.00;57.30;;;;;;4992217;28;20414;-72
2022/03/07 11:15:55;;;;;;;0.40;0.40;;;7.20;57.00;;;;;;4992449;28;20397;-71
2022/03/07 11:18:22;;;;;;;0.40;0.40;;;7.40;55.70;;;;;;4992035;28;20426;-75
2022/03/07 11:20:48;;;;;;;0.50;0.50;;;7.40;55.30;;;;;;4991704;28;20768;-72
2022/03/07 11:23:17;;;;;;;1.10;1.00;;;7.60;55.20;;;;;;4991192;28;20387;-71
2022/03/07 11:25:44;;;;;;;0.40;0.30;;;7.60;54.80;;;;;;4992639;28;20406;-72
2022/03/07 11:28:10;;;;;;;0.40;0.30;;;8.10;55.80;;;;;;4991207;28;20403;-71
2022/03/07 11:30:42;;;;;;;0.40;0.30;;;8.20;53.60;;;;;;4992208;28;20764;-72
2022/03/07 11:33:09;;;;;;;0.70;0.70;;;8.20;52.80;;;;;;4991789;28;20413;-72
2022/03/07 11:35:35;;;;;;;0.73;0.73;;;8.30;52.90;;;;;;4991720;28;20537;-71
2022/03/07 11:38:24;;;;;;;0.50;0.40;;;8.40;52.10;;;;;;4991933;28;20469;-72
2022/03/07 11:41:02;;;;;;;0.40;0.30;;;8.90;51.10;;;;;;4992299;28;20402;-72
2022/03/07 11:43:31;;;;;;;0.60;0.60;;;9.80;49.80;;;;;;4991008;28;20505;-72
2022/03/07 11:45:59;;;;;;;1.40;0.60;;;10.30;48.70;;;;;;4991983;28;20414;-72
2022/03/07 11:48:28;;;;;;;0.40;0.20;;;10.80;46.00;;;;;;4990899;28;20393;-70
2022/03/07 11:50:54;;;;;;;0.40;0.30;;;11.00;47.20;;;;;;4991682;28;20760;-72
2022/03/07 11:53:20;;;;;;;0.45;0.35;;;10.90;45.20;;;;;;4991403;28;20414;-71
2022/03/07 11:55:49;;;;;;;0.40;0.30;;;11.30;45.80;;;;;;4991506;28;20398;-72
2022/03/07 11:58:29;;;;;;;0.40;0.40;;;11.30;44.60;;;;;;4989033;28;20389;-71
2022/03/07 12:01:06;;;;;;;0.50;0.50;;;11.30;45.30;;;;;;4972657;28;20388;-71
2022/03/07 12:03:35;;;;;;;0.55;0.32;;;10.90;42.90;;;;;;4971688;28;20480;-70
2022/03/07 12:06:04;;;;;;;0.40;0.30;;;12.10;43.00;;;;;;4972260;28;20405;-71
2022/03/07 12:08:30;;;;;;;0.40;0.40;;;12.50;43.10;;;;;;4971439;28;20709;-71
2022/03/07 12:10:58;;;;;;;0.60;0.60;;;11.90;40.90;;;;;;4971659;28;20420;-71
2022/03/07 12:13:24;;;;;;;0.60;0.60;;;11.70;40.90;;;;;;4972023;28;20411;-72
2022/03/07 12:15:53;;;;;;;0.40;0.30;;;11.50;43.30;;;;;;4971176;28;20951;-71
2022/03/07 12:18:20;;;;;;;0.47;0.40;;;12.20;41.90;;;;;;4972021;28;20382;-71
2022/03/07 12:20:52;;;;;;;1.10;0.70;;;12.60;41.80;;;;;;4971311;28;20408;-70
2022/03/07 12:23:20;;;;;;;0.40;0.30;;;12.40;40.40;;;;;;4971921;28;20384;-71
2022/03/07 12:25:47;;;;;;;0.40;0.30;;;14.10;40.40;;;;;;4971277;28;20396;-70
2022/03/07 12:28:13;;;;;;;0.40;0.30;;;13.70;39.10;;;;;;4971895;28;20411;-71
2022/03/07 12:30:39;;;;;;;0.40;0.30;;;11.90;37.70;;;;;;4954520;28;20423;-71
2022/03/07 12:33:07;;;;;;;0.40;0.30;;;12.10;38.40;;;;;;4970515;28;20444;-71
2022/03/07 12:35:32;;;;;;;0.40;0.20;;;12.00;39.40;;;;;;4972021;28;20480;-71
2022/03/07 12:37:58;;;;;;;0.40;0.30;;;12.50;39.50;;;;;;4953858;28;20467;-71
2022/03/07 12:40:24;;;;;;;0.50;0.50;;;12.40;39.10;;;;;;4971455;28;20932;-72
2022/03/07 12:42:50;;;;;;;0.50;0.50;;;12.90;39.40;;;;;;4971654;28;20965;-71
2022/03/07 12:45:19;;;;;;;0.40;0.40;;;12.80;37.40;;;;;;4970896;28;20483;-71
2022/03/07 12:47:45;;;;;;;0.40;0.30;;;11.90;37.80;;;;;;4954816;28;20381;-71
2022/03/07 12:50:12;;;;;;;1.20;0.80;;;12.70;38.30;;;;;;4970675;28;20400;-70
2022/03/07 12:52:49;;;;;;;0.40;0.20;;;12.10;37.30;;;;;;4972099;28;20408;-71